sensor_id;sensor_type;location;lat;lon;timestamp;pressure;altitude;pressure_sealevel;temperature;humidity
76337;BME280;65157;50.082;18.178;2023-04-01T00:00:04;97551.73;;;8.10;73.12
76337;BME280;65157;50.082;18.178;2023-04-01T00:02:52;97564.41;;;8.09;73.46
76337;BME280;65157;50.082;18.178;2023-04-01T00:05:18;97567.61;;;8.06;73.59
76337;BME280;65157;50.082;18.178;2023-04-01T00:07:45;97565.55;;;8.02;73.61
76337;BME280;65157;50.082;18.178;2023-04-01T00:10:13;97567.24;;;8.00;73.75
76337;BME280;65157;50.082;18.178;2023-04-01T00:12:40;97563.70;;;7.91;73.80
76337;BME280;65157;50.082;18.178;2023-04-01T00:15:11;97572.05;;;7.93;74.10
76337;BME280;65157;50.082;18.178;2023-04-01T00:17:46;97566.63;;;7.87;74.28
76337;BME280;65157;50.082;18.178;2023-04-01T00:20:13;97563.17;;;7.85;74.41
76337;BME280;65157;50.082;18.178;2023-04-01T00:22:40;97564.02;;;7.86;74.55
76337;BME280;65157;50.082;18.178;2023-04-01T00:25:07;97568.83;;;7.85;74.99
76337;BME280;65157;50.082;18.178;2023-04-01T00:27:34;97572.10;;;7.83;74.88
76337;BME280;65157;50.082;18.178;2023-04-01T00:30:01;97567.92;;;7.82;75.23
76337;BME280;65157;50.082;18.178;2023-04-01T00:32:30;97567.79;;;7.81;75.24
76337;BME280;65157;50.082;18.178;2023-04-01T00:34:57;97569.37;;;7.81;75.64
76337;BME280;65157;50.082;18.178;2023-04-01T00:37:23;97567.11;;;7.81;75.45
76337;BME280;65157;50.082;18.178;2023-04-01T00:39:50;97567.89;;;7.83;75.59
76337;BME280;65157;50.082;18.178;2023-04-01T00:42:17;97561.14;;;7.84;75.51
76337;BME280;65157;50.082;18.178;2023-04-01T00:44:49;97554.92;;;7.85;75.73
76337;BME280;65157;50.082;18.178;2023-04-01T00:47:17;97549.16;;;7.85;75.38
76337;BME280;65157;50.082;18.178;2023-04-01T00:49:46;97552.96;;;7.86;75.53
76337;BME280;65157;50.082;18.178;2023-04-01T00:52:18;97557.78;;;7.84;75.65
76337;BME280;65157;50.082;18.178;2023-04-01T00:54:47;97556.46;;;7.83;75.77
76337;BME280;65157;50.082;18.178;2023-04-01T00:57:23;97560.16;;;7.83;75.76
76337;BME280;65157;50.082;18.178;2023-04-01T00:59:54;97556.13;;;7.83;75.70
76337;BME280;65157;50.082;18.178;2023-04-01T01:02:21;97554.66;;;7.84;75.74
76337;BME280;65157;50.082;18.178;2023-04-01T01:04:50;97551.67;;;7.84;75.61
76337;BME280;65157;50.082;18.178;2023-04-01T01:07:38;97541.20;;;7.80;75.50
76337;BME280;65157;50.082;18.178;2023-04-01T01:12:47;97544.95;;;7.84;75.38
76337;BME280;65157;50.082;18.178;2023-04-01T01:15:33;97542.27;;;7.82;75.46
76337;BME280;65157;50.082;18.178;2023-04-01T01:18:09;97544.77;;;7.82;75.37
76337;BME280;65157;50.082;18.178;2023-04-01T01:31:57;97546.67;;;7.76;75.14
76337;BME280;65157;50.082;18.178;2023-04-01T01:37:14;97530.77;;;7.63;75.31
76337;BME280;65157;50.082;18.178;2023-04-01T01:39:45;97541.12;;;7.69;75.35
76337;BME280;65157;50.082;18.178;2023-04-01T01:42:18;97544.71;;;7.65;75.42
76337;BME280;65157;50.082;18.178;2023-04-01T01:44:49;97541.21;;;7.62;75.45
76337;BME280;65157;50.082;18.178;2023-04-01T01:47:18;97542.58;;;7.59;75.55
76337;BME280;65157;50.082;18.178;2023-04-01T01:49:47;97545.62;;;7.58;75.49
76337;BME280;65157;50.082;18.178;2023-04-01T01:52:16;97548.85;;;7.57;75.55
76337;BME280;65157;50.082;18.178;2023-04-01T01:54:54;97548.98;;;7.55;75.54
76337;BME280;65157;50.082;18.178;2023-04-01T01:57:34;97546.52;;;7.52;75.82
76337;BME280;65157;50.082;18.178;2023-04-01T02:00:08;97546.06;;;7.51;75.73
76337;BME280;65157;50.082;18.178;2023-04-01T02:02:45;97544.38;;;7.52;75.81
76337;BME280;65157;50.082;18.178;2023-04-01T02:05:21;97539.08;;;7.53;75.98
76337;BME280;65157;50.082;18.178;2023-04-01T02:08:00;97536.64;;;7.50;76.26
76337;BME280;65157;50.082;18.178;2023-04-01T02:10:31;97541.42;;;7.52;76.02
76337;BME280;65157;50.082;18.178;2023-04-01T02:16:06;97541.14;;;7.54;76.09
76337;BME280;65157;50.082;18.178;2023-04-01T02:18:36;97541.91;;;7.55;76.05
76337;BME280;65157;50.082;18.178;2023-04-01T02:21:07;97524.79;;;7.45;76.15
76337;BME280;65157;50.082;18.178;2023-04-01T02:23:36;97547.77;;;7.55;76.22
76337;BME280;65157;50.082;18.178;2023-04-01T02:26:09;97549.30;;;7.52;76.46
76337;BME280;65157;50.082;18.178;2023-04-01T02:28:38;97555.58;;;7.50;76.44
76337;BME280;65157;50.082;18.178;2023-04-01T02:31:07;97555.27;;;7.49;76.46
76337;BME280;65157;50.082;18.178;2023-04-01T02:33:34;97555.79;;;7.50;76.54
76337;BME280;65157;50.082;18.178;2023-04-01T02:36:01;97554.17;;;7.50;76.50
76337;BME280;65157;50.082;18.178;2023-04-01T02:38:28;97553.90;;;7.52;76.42
76337;BME280;65157;50.082;18.178;2023-04-01T02:41:00;97559.44;;;7.53;76.35
76337;BME280;65157;50.082;18.178;2023-04-01T02:43:27;97560.03;;;7.55;76.33
76337;BME280;65157;50.082;18.178;2023-04-01T02:45:54;97560.08;;;7.57;76.32
76337;BME280;65157;50.082;18.178;2023-04-01T02:48:21;97565.45;;;7.58;76.18
76337;BME280;65157;50.082;18.178;2023-04-01T02:50:47;97563.13;;;7.59;76.14
76337;BME280;65157;50.082;18.178;2023-04-01T02:53:14;97564.39;;;7.59;76.10
76337;BME280;65157;50.082;18.178;2023-04-01T02:55:41;97569.27;;;7.59;76.19
76337;BME280;65157;50.082;18.178;2023-04-01T02:58:08;97572.52;;;7.58;76.48
76337;BME280;65157;50.082;18.178;2023-04-01T03:00:35;97577.80;;;7.52;76.61
76337;BME280;65157;50.082;18.178;2023-04-01T03:03:02;97584.30;;;7.51;76.78
76337;BME280;65157;50.082;18.178;2023-04-01T03:05:28;97585.98;;;7.49;76.85
76337;BME280;65157;50.082;18.178;2023-04-01T03:07:55;97584.05;;;7.50;76.98
76337;BME280;65157;50.082;18.178;2023-04-01T03:10:22;97580.05;;;7.49;76.93
76337;BME280;65157;50.082;18.178;2023-04-01T03:12:49;97584.35;;;7.51;76.87
76337;BME280;65157;50.082;18.178;2023-04-01T03:15:16;97576.48;;;7.53;76.83
76337;BME280;65157;50.082;18.178;2023-04-01T03:17:45;97578.41;;;7.56;76.97
76337;BME280;65157;50.082;18.178;2023-04-01T03:20:14;97573.85;;;7.56;76.82
76337;BME280;65157;50.082;18.178;2023-04-01T03:22:42;97575.45;;;7.58;76.75
76337;BME280;65157;50.082;18.178;2023-04-01T03:25:09;97573.80;;;7.60;76.80
76337;BME280;65157;50.082;18.178;2023-04-01T03:27:37;97567.23;;;7.61;76.74
76337;BME280;65157;50.082;18.178;2023-04-01T03:30:08;97562.23;;;7.60;76.66
76337;BME280;65157;50.082;18.178;2023-04-01T03:32:35;97563.55;;;7.64;76.75
76337;BME280;65157;50.082;18.178;2023-04-01T03:35:02;97561.98;;;7.61;76.66
76337;BME280;65157;50.082;18.178;2023-04-01T03:37:29;97570.77;;;7.67;76.80
76337;BME280;65157;50.082;18.178;2023-04-01T03:40:03;97570.36;;;7.68;76.72
76337;BME280;65157;50.082;18.178;2023-04-01T03:42:30;97571.55;;;7.69;77.03
76337;BME280;65157;50.082;18.178;2023-04-01T03:44:57;97569.67;;;7.67;77.12
76337;BME280;65157;50.082;18.178;2023-04-01T03:47:24;97570.55;;;7.67;77.19
76337;BME280;65157;50.082;18.178;2023-04-01T03:49:51;97574.58;;;7.68;77.49
76337;BME280;65157;50.082;18.178;2023-04-01T03:52:18;97572.51;;;7.67;77.42
76337;BME280;65157;50.082;18.178;2023-04-01T03:54:44;97571.59;;;7.67;77.57
76337;BME280;65157;50.082;18.178;2023-04-01T03:57:12;97570.07;;;7.70;77.42
76337;BME280;65157;50.082;18.178;2023-04-01T03:59:39;97569.48;;;7.71;77.53
76337;BME280;65157;50.082;18.178;2023-04-01T04:02:05;97572.92;;;7.72;77.63
76337;BME280;65157;50.082;18.178;2023-04-01T04:04:33;97573.75;;;7.73;77.61
76337;BME280;65157;50.082;18.178;2023-04-01T04:07:01;97576.73;;;7.73;77.64
76337;BME280;65157;50.082;18.178;2023-04-01T04:09:31;97575.13;;;7.73;77.68
76337;BME280;65157;50.082;18.178;2023-04-01T04:12:01;97573.02;;;7.73;77.74
76337;BME280;65157;50.082;18.178;2023-04-01T04:14:28;97576.02;;;7.73;78.08
76337;BME280;65157;50.082;18.178;2023-04-01T04:17:02;97574.58;;;7.73;78.09
76337;BME280;65157;50.082;18.178;2023-04-01T04:19:51;97574.23;;;7.74;78.34
76337;BME280;65157;50.082;18.178;2023-04-01T04:22:20;97571.58;;;7.74;78.30
76337;BME280;65157;50.082;18.178;2023-04-01T04:24:49;97574.78;;;7.76;78.31
76337;BME280;65157;50.082;18.178;2023-04-01T04:27:24;97572.70;;;7.79;78.26
76337;BME280;65157;50.082;18.178;2023-04-01T04:29:57;97571.31;;;7.82;78.09
76337;BME280;65157;50.082;18.178;2023-04-01T04:32:31;97569.77;;;7.87;77.89
76337;BME280;65157;50.082;18.178;2023-04-01T04:35:01;97570.55;;;7.91;77.80
76337;BME280;65157;50.082;18.178;2023-04-01T04:37:28;97571.83;;;7.97;77.90
76337;BME280;65157;50.082;18.178;2023-04-01T04:39:55;97573.23;;;8.00;77.77
76337;BME280;65157;50.082;18.178;2023-04-01T04:42:22;97573.48;;;8.05;77.67
76337;BME280;65157;50.082;18.178;2023-04-01T04:44:48;97557.95;;;8.05;77.66
76337;BME280;65157;50.082;18.178;2023-04-01T04:47:15;97561.73;;;8.13;77.67
76337;BME280;65157;50.082;18.178;2023-04-01T04:49:42;97555.60;;;8.12;77.66
76337;BME280;65157;50.082;18.178;2023-04-01T04:52:12;97566.38;;;8.18;77.62
76337;BME280;65157;50.082;18.178;2023-04-01T04:54:41;97565.36;;;8.20;77.64
76337;BME280;65157;50.082;18.178;2023-04-01T04:57:10;97564.79;;;8.20;77.62
76337;BME280;65157;50.082;18.178;2023-04-01T04:59:37;97568.38;;;8.22;77.63
76337;BME280;65157;50.082;18.178;2023-04-01T05:02:04;97567.96;;;8.23;77.45
76337;BME280;65157;50.082;18.178;2023-04-01T05:04:34;97568.85;;;8.23;77.53
76337;BME280;65157;50.082;18.178;2023-04-01T05:07:02;97566.54;;;8.24;77.57
76337;BME280;65157;50.082;18.178;2023-04-01T05:09:29;97567.82;;;8.26;77.56
76337;BME280;65157;50.082;18.178;2023-04-01T05:11:55;97564.58;;;8.25;77.68
76337;BME280;65157;50.082;18.178;2023-04-01T05:14:22;97568.59;;;8.31;77.54
76337;BME280;65157;50.082;18.178;2023-04-01T05:16:49;97570.46;;;8.35;77.52
76337;BME280;65157;50.082;18.178;2023-04-01T05:19:16;97571.31;;;8.38;77.52
76337;BME280;65157;50.082;18.178;2023-04-01T05:21:43;97569.30;;;8.42;77.39
76337;BME280;65157;50.082;18.178;2023-04-01T05:24:12;97552.13;;;8.33;77.27
76337;BME280;65157;50.082;18.178;2023-04-01T05:26:40;97567.70;;;8.51;77.25
76337;BME280;65157;50.082;18.178;2023-04-01T05:29:07;97568.51;;;8.55;77.32
76337;BME280;65157;50.082;18.178;2023-04-01T05:31:37;97566.85;;;8.59;77.06
76337;BME280;65157;50.082;18.178;2023-04-01T05:34:05;97567.09;;;8.64;77.07
76337;BME280;65157;50.082;18.178;2023-04-01T05:36:31;97571.01;;;8.69;77.12
76337;BME280;65157;50.082;18.178;2023-04-01T05:38:58;97572.90;;;8.75;76.93
76337;BME280;65157;50.082;18.178;2023-04-01T05:41:25;97560.70;;;8.74;76.99
76337;BME280;65157;50.082;18.178;2023-04-01T05:43:51;97576.45;;;8.89;76.78
76337;BME280;65157;50.082;18.178;2023-04-01T05:46:23;97579.61;;;8.97;76.86
76337;BME280;65157;50.082;18.178;2023-04-01T05:48:53;97576.30;;;9.05;76.74
76337;BME280;65157;50.082;18.178;2023-04-01T05:51:20;97577.90;;;9.13;76.89
76337;BME280;65157;50.082;18.178;2023-04-01T05:53:47;97568.66;;;9.15;76.66
76337;BME280;65157;50.082;18.178;2023-04-01T05:56:14;97578.85;;;9.29;76.52
76337;BME280;65157;50.082;18.178;2023-04-01T05:58:41;97575.71;;;9.36;76.55
76337;BME280;65157;50.082;18.178;2023-04-01T06:01:10;97576.73;;;9.45;76.57
76337;BME280;65157;50.082;18.178;2023-04-01T06:03:37;97575.74;;;9.55;76.42
76337;BME280;65157;50.082;18.178;2023-04-01T06:06:13;97577.30;;;9.63;76.31
76337;BME280;65157;50.082;18.178;2023-04-01T06:08:41;97577.05;;;9.73;76.13
76337;BME280;65157;50.082;18.178;2023-04-01T06:12:17;97579.70;;;9.80;75.56
76337;BME280;65157;50.082;18.178;2023-04-01T06:17:43;97585.20;;;9.96;75.18
76337;BME280;65157;50.082;18.178;2023-04-01T06:23:33;97583.35;;;10.08;74.47
76337;BME280;65157;50.082;18.178;2023-04-01T06:42:56;97588.63;;;10.27;74.16
76337;BME280;65157;50.082;18.178;2023-04-01T06:45:38;97592.18;;;10.31;74.36
76337;BME280;65157;50.082;18.178;2023-04-01T06:48:18;97596.89;;;10.35;74.07
76337;BME280;65157;50.082;18.178;2023-04-01T06:55:57;97599.86;;;10.40;74.46
76337;BME280;65157;50.082;18.178;2023-04-01T06:58:35;97598.71;;;10.36;74.35
76337;BME280;65157;50.082;18.178;2023-04-01T07:01:09;97601.72;;;10.42;74.60
76337;BME280;65157;50.082;18.178;2023-04-01T07:03:49;97604.20;;;10.44;75.01
76337;BME280;65157;50.082;18.178;2023-04-01T07:06:33;97600.90;;;10.43;74.75
76337;BME280;65157;50.082;18.178;2023-04-01T07:09:08;97608.45;;;10.49;75.11
76337;BME280;65157;50.082;18.178;2023-04-01T07:11:38;97610.70;;;10.50;75.05
76337;BME280;65157;50.082;18.178;2023-04-01T07:17:21;97606.80;;;10.55;75.21
76337;BME280;65157;50.082;18.178;2023-04-01T07:22:43;97620.61;;;10.59;75.51
76337;BME280;65157;50.082;18.178;2023-04-01T07:25:19;97625.42;;;10.61;75.72
76337;BME280;65157;50.082;18.178;2023-04-01T07:27:47;97630.19;;;10.63;75.77
76337;BME280;65157;50.082;18.178;2023-04-01T07:30:23;97627.88;;;10.61;75.41
76337;BME280;65157;50.082;18.178;2023-04-01T07:36:32;97640.45;;;10.66;75.97
76337;BME280;65157;50.082;18.178;2023-04-01T07:39:26;97636.23;;;10.63;75.70
76337;BME280;65157;50.082;18.178;2023-04-01T07:42:09;97641.82;;;10.66;75.72
76337;BME280;65157;50.082;18.178;2023-04-01T07:45:06;97640.55;;;10.69;75.99
76337;BME280;65157;50.082;18.178;2023-04-01T07:50:29;97637.84;;;10.73;76.25
76337;BME280;65157;50.082;18.178;2023-04-01T07:53:08;97639.16;;;10.74;75.53
76337;BME280;65157;50.082;18.178;2023-04-01T07:59:04;97643.08;;;10.81;75.94
76337;BME280;65157;50.082;18.178;2023-04-01T08:01:50;97646.14;;;10.91;76.27
76337;BME280;65157;50.082;18.178;2023-04-01T08:05:00;97642.90;;;11.07;76.38
76337;BME280;65157;50.082;18.178;2023-04-01T08:10:56;97644.61;;;11.35;75.65
76337;BME280;65157;50.082;18.178;2023-04-01T08:24:42;97658.38;;;11.94;74.03
76337;BME280;65157;50.082;18.178;2023-04-01T08:27:38;97660.07;;;12.02;74.03
76337;BME280;65157;50.082;18.178;2023-04-01T08:30:21;97655.29;;;11.98;72.11
76337;BME280;65157;50.082;18.178;2023-04-01T08:32:59;97663.74;;;11.88;71.76
76337;BME280;65157;50.082;18.178;2023-04-01T08:35:40;97664.74;;;11.74;71.09
76337;BME280;65157;50.082;18.178;2023-04-01T08:41:37;97668.80;;;11.52;72.38
76337;BME280;65157;50.082;18.178;2023-04-01T08:52:32;97664.77;;;11.29;72.52
76337;BME280;65157;50.082;18.178;2023-04-01T09:00:54;97668.79;;;11.15;72.00
76337;BME280;65157;50.082;18.178;2023-04-01T09:12:23;97673.19;;;10.90;73.86
76337;BME280;65157;50.082;18.178;2023-04-01T09:15:06;97664.75;;;10.92;74.05
76337;BME280;65157;50.082;18.178;2023-04-01T09:21:03;97659.51;;;11.09;74.18
76337;BME280;65157;50.082;18.178;2023-04-01T09:23:43;97653.78;;;11.20;74.43
76337;BME280;65157;50.082;18.178;2023-04-01T09:35:21;97658.56;;;11.64;73.53
76337;BME280;65157;50.082;18.178;2023-04-01T09:43:57;97655.89;;;12.04;72.78
76337;BME280;65157;50.082;18.178;2023-04-01T09:49:26;97648.09;;;12.30;70.51
76337;BME280;65157;50.082;18.178;2023-04-01T09:52:13;97665.10;;;12.49;70.55
76337;BME280;65157;50.082;18.178;2023-04-01T09:55:19;97666.61;;;12.57;70.17
76337;BME280;65157;50.082;18.178;2023-04-01T10:09:24;97658.89;;;13.71;67.17
76337;BME280;65157;50.082;18.178;2023-04-01T10:23:07;97666.51;;;14.25;63.35
76337;BME280;65157;50.082;18.178;2023-04-01T10:31:32;97662.51;;;14.25;62.51
76337;BME280;65157;50.082;18.178;2023-04-01T10:36:56;97663.82;;;14.28;62.97
76337;BME280;65157;50.082;18.178;2023-04-01T10:39:33;97663.36;;;14.29;62.29
76337;BME280;65157;50.082;18.178;2023-04-01T10:42:36;97667.19;;;14.32;62.57
76337;BME280;65157;50.082;18.178;2023-04-01T10:45:44;97663.42;;;14.37;61.68
76337;BME280;65157;50.082;18.178;2023-04-01T11:05:42;97669.36;;;14.32;62.30
76337;BME280;65157;50.082;18.178;2023-04-01T11:17:27;97663.70;;;14.03;61.06
76337;BME280;65157;50.082;18.178;2023-04-01T11:20:56;97661.77;;;13.90;60.69
76337;BME280;65157;50.082;18.178;2023-04-01T11:40:14;97667.80;;;13.75;61.60
76337;BME280;65157;50.082;18.178;2023-04-01T12:00:41;97685.34;;;13.75;62.20
76337;BME280;65157;50.082;18.178;2023-04-01T12:03:46;97680.05;;;13.70;61.58
76337;BME280;65157;50.082;18.178;2023-04-01T12:12:27;97687.27;;;13.62;62.32
76337;BME280;65157;50.082;18.178;2023-04-01T12:15:16;97693.88;;;13.60;62.98
76337;BME280;65157;50.082;18.178;2023-04-01T12:17:53;97698.83;;;13.50;63.11
76337;BME280;65157;50.082;18.178;2023-04-01T12:35:16;97703.73;;;12.96;64.90
76337;BME280;65157;50.082;18.178;2023-04-01T12:46:29;97698.30;;;13.15;64.09
76337;BME280;65157;50.082;18.178;2023-04-01T12:54:39;97693.13;;;13.91;63.89
76337;BME280;65157;50.082;18.178;2023-04-01T12:57:46;97690.52;;;14.25;63.14
76337;BME280;65157;50.082;18.178;2023-04-01T13:09:28;97688.90;;;14.57;60.93
76337;BME280;65157;50.082;18.178;2023-04-01T13:18:25;97692.44;;;14.81;60.03
76337;BME280;65157;50.082;18.178;2023-04-01T13:29:23;97684.67;;;14.87;59.01
76337;BME280;65157;50.082;18.178;2023-04-01T13:40:51;97689.70;;;14.84;58.65
76337;BME280;65157;50.082;18.178;2023-04-01T13:43:30;97690.68;;;14.72;58.16
76337;BME280;65157;50.082;18.178;2023-04-01T14:00:22;97699.00;;;14.68;58.13
76337;BME280;65157;50.082;18.178;2023-04-01T14:03:20;97700.05;;;14.60;57.28
76337;BME280;65157;50.082;18.178;2023-04-01T14:25:43;97702.80;;;14.02;59.02
76337;BME280;65157;50.082;18.178;2023-04-01T14:37:47;97706.53;;;13.89;58.69
76337;BME280;65157;50.082;18.178;2023-04-01T14:40:53;97713.25;;;14.00;58.93
76337;BME280;65157;50.082;18.178;2023-04-01T14:43:47;97703.53;;;14.00;58.80
76337;BME280;65157;50.082;18.178;2023-04-01T14:46:34;97712.14;;;14.07;57.91
76337;BME280;65157;50.082;18.178;2023-04-01T14:49:34;97716.77;;;14.05;58.91
76337;BME280;65157;50.082;18.178;2023-04-01T14:52:13;97716.09;;;14.05;58.55
76337;BME280;65157;50.082;18.178;2023-04-01T14:54:46;97719.12;;;14.00;58.60
76337;BME280;65157;50.082;18.178;2023-04-01T14:57:38;97720.62;;;13.97;58.30
76337;BME280;65157;50.082;18.178;2023-04-01T15:00:14;97723.50;;;13.88;59.21
76337;BME280;65157;50.082;18.178;2023-04-01T15:05:44;97737.34;;;13.61;61.79
76337;BME280;65157;50.082;18.178;2023-04-01T15:08:26;97745.16;;;13.52;62.76
76337;BME280;65157;50.082;18.178;2023-04-01T15:19:11;97745.32;;;13.30;63.62
76337;BME280;65157;50.082;18.178;2023-04-01T15:22:06;97745.65;;;13.28;63.54
76337;BME280;65157;50.082;18.178;2023-04-01T15:24:51;97745.38;;;13.22;63.51
76337;BME280;65157;50.082;18.178;2023-04-01T15:31:04;97755.59;;;13.12;63.78
76337;BME280;65157;50.082;18.178;2023-04-01T15:37:19;97752.71;;;13.02;63.86
76337;BME280;65157;50.082;18.178;2023-04-01T15:51:45;97773.75;;;13.05;64.12
76337;BME280;65157;50.082;18.178;2023-04-01T15:58:20;97783.94;;;13.06;64.25
76337;BME280;65157;50.082;18.178;2023-04-01T16:00:53;97787.16;;;13.03;64.74
76337;BME280;65157;50.082;18.178;2023-04-01T16:03:35;97793.11;;;13.02;64.64
76337;BME280;65157;50.082;18.178;2023-04-01T16:06:20;97790.02;;;12.94;64.77
76337;BME280;65157;50.082;18.178;2023-04-01T16:15:18;97806.84;;;12.82;65.36
76337;BME280;65157;50.082;18.178;2023-04-01T16:21:04;97808.34;;;12.60;64.51
76337;BME280;65157;50.082;18.178;2023-04-01T16:23:43;97814.84;;;12.43;64.43
76337;BME280;65157;50.082;18.178;2023-04-01T16:29:17;97816.08;;;12.21;64.43
76337;BME280;65157;50.082;18.178;2023-04-01T16:34:30;97834.41;;;12.08;64.06
76337;BME280;65157;50.082;18.178;2023-04-01T16:37:20;97836.41;;;11.99;64.55
76337;BME280;65157;50.082;18.178;2023-04-01T16:42:40;97840.59;;;11.80;65.44
76337;BME280;65157;50.082;18.178;2023-04-01T16:47:58;97849.20;;;11.68;65.95
76337;BME280;65157;50.082;18.178;2023-04-01T16:50:41;97853.41;;;11.65;66.34
76337;BME280;65157;50.082;18.178;2023-04-01T16:55:55;97855.44;;;11.67;67.14
76337;BME280;65157;50.082;18.178;2023-04-01T17:03:38;97864.14;;;11.59;68.18
76337;BME280;65157;50.082;18.178;2023-04-01T17:14:29;97880.40;;;11.59;69.70
76337;BME280;65157;50.082;18.178;2023-04-01T17:17:31;97896.64;;;11.59;69.68
76337;BME280;65157;50.082;18.178;2023-04-01T17:23:13;97907.05;;;11.59;69.26
76337;BME280;65157;50.082;18.178;2023-04-01T17:31:07;97926.65;;;11.30;69.50
76337;BME280;65157;50.082;18.178;2023-04-01T17:39:46;97934.25;;;11.12;70.60
76337;BME280;65157;50.082;18.178;2023-04-01T17:51:02;97949.17;;;11.16;70.38
76337;BME280;65157;50.082;18.178;2023-04-01T17:53:40;97945.21;;;11.14;70.21
76337;BME280;65157;50.082;18.178;2023-04-01T18:04:37;97956.14;;;11.20;69.97
76337;BME280;65157;50.082;18.178;2023-04-01T18:15:49;97955.42;;;11.04;70.04
76337;BME280;65157;50.082;18.178;2023-04-01T18:23:56;97978.19;;;11.01;70.12
76337;BME280;65157;50.082;18.178;2023-04-01T18:26:29;97973.75;;;10.94;70.24
76337;BME280;65157;50.082;18.178;2023-04-01T18:31:45;97985.16;;;10.92;70.42
76337;BME280;65157;50.082;18.178;2023-04-01T18:34:29;97984.64;;;10.89;
76337;BME280;65157;50.082;18.178;2023-04-01T18:40:20;97986.58;;;10.78;70.46
76337;BME280;65157;50.082;18.178;2023-04-01T18:45:58;97985.83;;;10.67;70.57
76337;BME280;65157;50.082;18.178;2023-04-01T18:51:13;98000.88;;;10.55;70.69
76337;BME280;65157;50.082;18.178;2023-04-01T18:53:45;98003.48;;;10.50;70.90
76337;BME280;65157;50.082;18.178;2023-04-01T18:56:37;98005.23;;;10.45;70.88
76337;BME280;65157;50.082;18.178;2023-04-01T18:59:20;97999.86;;;10.29;71.02
76337;BME280;65157;50.082;18.178;2023-04-01T19:02:22;98005.91;;;10.29;71.30
76337;BME280;65157;50.082;18.178;2023-04-01T19:07:44;98014.84;;;10.21;71.55
76337;BME280;65157;50.082;18.178;2023-04-01T19:21:26;98028.94;;;10.09;72.49
76337;BME280;65157;50.082;18.178;2023-04-01T19:26:45;98038.55;;;10.04;72.78
76337;BME280;65157;50.082;18.178;2023-04-01T19:29:34;98044.21;;;10.04;72.75
76337;BME280;65157;50.082;18.178;2023-04-01T19:32:25;98043.55;;;10.03;72.95
76337;BME280;65157;50.082;18.178;2023-04-01T19:35:09;98043.66;;;9.98;73.32
76337;BME280;65157;50.082;18.178;2023-04-01T19:37:56;98048.08;;;9.92;73.45
76337;BME280;65157;50.082;18.178;2023-04-01T19:46:26;98052.11;;;9.86;73.81
76337;BME280;65157;50.082;18.178;2023-04-01T20:00:27;98059.68;;;9.78;74.61
76337;BME280;65157;50.082;18.178;2023-04-01T20:05:45;98064.62;;;9.78;74.58
76337;BME280;65157;50.082;18.178;2023-04-01T20:14:40;98067.23;;;9.75;75.14
76337;BME280;65157;50.082;18.178;2023-04-01T20:17:17;98071.80;;;9.72;75.06
76337;BME280;65157;50.082;18.178;2023-04-01T20:20:01;98072.70;;;9.72;75.08
76337;BME280;65157;50.082;18.178;2023-04-01T20:25:33;98071.46;;;9.69;75.30
76337;BME280;65157;50.082;18.178;2023-04-01T20:36:41;98081.40;;;9.62;75.56
76337;BME280;65157;50.082;18.178;2023-04-01T20:45:14;98086.00;;;9.58;75.76
76337;BME280;65157;50.082;18.178;2023-04-01T20:50:35;98091.73;;;9.60;76.15
76337;BME280;65157;50.082;18.178;2023-04-01T21:07:03;98103.22;;;9.59;76.76
76337;BME280;65157;50.082;18.178;2023-04-01T21:17:25;98114.50;;;9.62;76.90
76337;BME280;65157;50.082;18.178;2023-04-01T21:32:09;98128.95;;;9.65;76.84
76337;BME280;65157;50.082;18.178;2023-04-01T21:40:24;98132.86;;;9.64;77.08
76337;BME280;65157;50.082;18.178;2023-04-01T21:48:44;98139.81;;;9.63;77.26
76337;BME280;65157;50.082;18.178;2023-04-01T21:51:33;98139.10;;;9.63;77.28
76337;BME280;65157;50.082;18.178;2023-04-01T22:03:36;98150.44;;;9.43;78.13
76337;BME280;65157;50.082;18.178;2023-04-01T22:06:47;98149.92;;;9.34;78.46
76337;BME280;65157;50.082;18.178;2023-04-01T22:09:25;98152.63;;;9.29;78.70
76337;BME280;65157;50.082;18.178;2023-04-01T22:12:14;98152.59;;;9.23;79.06
76337;BME280;65157;50.082;18.178;2023-04-01T22:15:16;98154.38;;;9.17;79.14
76337;BME280;65157;50.082;18.178;2023-04-01T22:18:13;98156.80;;;9.17;79.13
76337;BME280;65157;50.082;18.178;2023-04-01T22:21:18;98155.08;;;9.20;79.27
76337;BME280;65157;50.082;18.178;2023-04-01T22:27:16;98158.65;;;9.19;79.56
76337;BME280;65157;50.082;18.178;2023-04-01T22:32:21;98142.80;;;9.00;80.09
76337;BME280;65157;50.082;18.178;2023-04-01T22:35:00;98148.33;;;9.01;80.09
76337;BME280;65157;50.082;18.178;2023-04-01T22:37:52;98162.94;;;9.05;80.79
76337;BME280;65157;50.082;18.178;2023-04-01T22:40:39;98161.20;;;8.97;80.86
76337;BME280;65157;50.082;18.178;2023-04-01T22:43:48;98148.30;;;8.82;80.84
76337;BME280;65157;50.082;18.178;2023-04-01T22:49:07;98148.98;;;8.83;81.16
76337;BME280;65157;50.082;18.178;2023-04-01T22:54:29;98159.20;;;8.92;81.14
76337;BME280;65157;50.082;18.178;2023-04-01T22:57:28;98162.45;;;8.91;81.32
76337;BME280;65157;50.082;18.178;2023-04-01T23:00:15;98159.34;;;8.89;81.45
76337;BME280;65157;50.082;18.178;2023-04-01T23:03:11;98161.11;;;8.89;81.37
76337;BME280;65157;50.082;18.178;2023-04-01T23:05:51;98160.05;;;8.89;81.61
76337;BME280;65157;50.082;18.178;2023-04-01T23:08:43;98163.20;;;8.90;81.26
76337;BME280;65157;50.082;18.178;2023-04-01T23:11:17;98171.61;;;8.94;81.13
76337;BME280;65157;50.082;18.178;2023-04-01T23:13:48;98174.29;;;8.99;80.99
76337;BME280;65157;50.082;18.178;2023-04-01T23:16:27;98177.25;;;9.03;80.79
76337;BME280;65157;50.082;18.178;2023-04-01T23:19:17;98178.24;;;9.08;80.85
76337;BME280;65157;50.082;18.178;2023-04-01T23:21:50;98177.77;;;9.10;80.93
76337;BME280;65157;50.082;18.178;2023-04-01T23:24:27;98176.59;;;9.13;80.86
76337;BME280;65157;50.082;18.178;2023-04-01T23:27:17;98176.92;;;9.13;80.89